• Join FlightAware (Why Join?)
  • Login
  • US Flag 
03:41AM EDT


 

Airport Tracker/Info


-or-


 

Live Flight TrackerFlight Track Log ✈ N789CA ✈ 22-Aug-2014 ✈ KFLL - KHPN

Flight Track Log - Related Links

Times and Time Zones

All times are in EDT time to prevent confusion due to time zone crossing. See the N789CA flight status page for this flight to view local times or setup timezone preferences in your user account.

Time Position Orientation Groundspeed Altitude Reporting Facility
EDT Latitude Longitude Course Direction KTS MPH feet Rate Location/Type
09:56AM 26.0761 -80.1311 74° East 173 199 700  Level Miami Center
09:57AM 26.0939 -80.0614 74° East 228 262 2,600 1,860 Climbing Miami Center
09:58AM 26.1589 -80.0347 20° North 265 305 4,800 1,140 Climbing Miami Center
09:59AM 26.2231 -80.0789 328° Northwest 271 312 5,000 1,260 Climbing Miami Center
10:00AM 26.2953 -80.1469 320° Northwest 295 339 7,400 2,520 Climbing Miami Center
10:01AM 26.3519 -80.2106 315° West 289 333 10,200 2,460 Climbing Miami Center
10:02AM 26.4192 -80.2589 327° Northwest 291 335 12,600 2,220 Climbing Miami Center
10:03AM 26.5000 -80.3111 330° Northwest 312 359 14,800 2,040 Climbing Miami Center
10:04AM 26.5778 -80.3614 330° Northwest 320 368 16,800 1,980 Climbing Miami Center
10:05AM 26.6708 -80.3953 342° North 327 376 18,900 1,920 Climbing Miami Center
10:06AM 26.7583 -80.4247 343° North 327 376 20,800 1,740 Climbing Miami Center
10:07AM 26.8464 -80.4561 342° North 327 376 22,500 1,320 Climbing Miami Center
10:08AM 26.9378 -80.4875 343° North 340 391 23,600 960 Climbing Miami Center
10:09AM 27.0344 -80.5208 343° North 357 411 24,600 960 Climbing Miami Center
10:10AM 27.1344 -80.5558 343° North 373 429 25,600 960 Climbing Miami Center
10:11AM 27.2369 -80.5919 343° North 384 442 26,600 1,020 Climbing Miami Center
10:12AM 27.3394 -80.6283 342° North 385 443 27,800 1,080 Climbing Miami Center
10:13AM 27.4425 -80.6636 343° North 385 443 28,900 1,260 Climbing Miami Center
10:14AM 27.5672 -80.7067 343° North 391 450 30,400 1,260 Climbing Miami Center
10:15AM 27.6700 -80.7442 342° North 383 441 31,500 1,020 Climbing Miami Center
10:16AM 27.7708 -80.7803 342° North 377 434 32,600 960 Climbing Miami Center
10:17AM 27.8747 -80.8172 343° North 380 437 33,500 840 Climbing Miami Center
10:18AM 27.9761 -80.8531 343° North 382 440 34,400 780 Climbing Miami Center
10:19AM 28.0767 -80.8892 342° North 382 440 35,200 900 Climbing Miami Center
10:20AM 28.1928 -80.9317 342° North 379 436 36,300 960 Climbing Miami Center
10:21AM 28.2964 -80.9681 343° North 372 428 37,200 780 Climbing Miami Center
10:23AM 28.3922 -81.0031 342° North 368 423 38,000 660 Climbing Miami Center
10:24AM 28.4869 -81.0375 342° North 361 415 38,600 480 Climbing Miami Center
10:25AM 28.5819 -81.0717 342° North 361 415 39,000 180 Climbing Miami Center
10:26AM 28.6922 -81.1106 343° North 368 423 39,000  Level Miami Center
10:27AM 28.7919 -81.1394 346° North 377 434 39,000  Level Miami Center
10:28AM 28.8992 -81.1636 349° North 387 445 39,000  Level Miami Center
10:29AM 29.0569 -81.2014 348° North 408 470 39,000  Level Jacksonville Center
10:30AM 29.1661 -81.2447 341° North 416 479 39,000  Level Jacksonville Center
10:31AM 29.2814 -81.2689 350° North 417 480 39,000  Level Jacksonville Center
10:32AM 29.4006 -81.2908 351° North 425 489 39,000  Level Jacksonville Center
10:33AM 29.5008 -81.3106 350° North 427 491 39,000  Level Jacksonville Center
10:34AM 29.6222 -81.3325 351° North 427 491 39,000  Level Jacksonville Center
10:35AM 29.7456 -81.3281 North 433 498 39,000 240 Level Jacksonville Center
10:36AM 29.8644 -81.3192 North 427 491 39,500 540 Climbing Jacksonville Center
10:37AM 29.9811 -81.3122 North 422 486 40,100 600 Climbing Jacksonville Center
10:38AM 30.0981 -81.3081 North 417 480 40,800 420 Climbing Jacksonville Center
10:39AM 30.2086 -81.3014 North 412 474 41,000 60 Climbing Jacksonville Center
10:40AM 30.3211 -81.2947 North 406 467 41,000  Level Jacksonville Center
10:41AM 30.4381 -81.2881 North 406 467 41,000  Level Jacksonville Center
10:42AM 30.5528 -81.2836 North 406 467 41,000  Level Jacksonville Center
10:43AM 30.6717 -81.2767 North 406 467 41,000  Level Jacksonville Center
10:44AM 30.7886 -81.2725 North 412 474 41,000  Level Jacksonville Center
10:45AM 30.9033 -81.2656 North 412 474 41,000  Level Jacksonville Center
10:46AM 31.0244 -81.2611 North 422 486 41,000  Level Jacksonville Center
10:47AM 31.1411 -81.2517 North 422 486 41,000  Level Jacksonville Center
10:48AM 31.2622 -81.2497 North 422 486 41,000  Level Jacksonville Center
10:49AM 31.3792 -81.2453 North 417 480 41,000  Level Jacksonville Center
10:50AM 31.5106 -81.2381 North 422 486 41,000  Level Jacksonville Center
10:51AM 31.6294 -81.2308 North 428 493 41,000  Level Jacksonville Center
10:52AM 31.7314 -81.2047 12° North 422 486 41,000  Level Jacksonville Center
10:53AM 31.8344 -81.1075 39° Northeast 419 482 41,000  Level Jacksonville Center
10:54AM 31.9147 -81.0203 43° Northeast 424 488 41,000  Level Jacksonville Center
10:55AM 32.0156 -80.9225 39° Northeast 432 497 41,000  Level Jacksonville Center
10:56AM 32.1081 -80.8322 40° Northeast 426 490 41,000  Level Jacksonville Center
10:57AM 32.1903 -80.7519 40° Northeast 426 490 41,000  Level Jacksonville Center
10:58AM 32.2783 -80.6614 41° Northeast 426 490 41,000  Level Jacksonville Center
10:59AM 32.3728 -80.5656 41° Northeast 426 490 41,000  Level Jacksonville Center
11:00AM 32.4628 -80.4772 40° Northeast 426 490 41,000  Level Jacksonville Center
11:01AM 32.5531 -80.3836 41° Northeast 426 490 41,000  Level Jacksonville Center
11:02AM 32.6431 -80.2922 41° Northeast 426 490 41,000 -60 Level Jacksonville Center
11:03AM 32.7328 -80.2008 41° Northeast 426 490 40,900  Descending Jacksonville Center
11:04AM 32.8206 -80.1067 42° Northeast 426 490 41,000  Climbing Jacksonville Center
11:05AM 32.9125 -80.0122 41° Northeast 426 490 41,000  Level Jacksonville Center
11:06AM 33.0083 -79.9225 38° Northeast 426 490 41,000  Level Jacksonville Center
11:07AM 33.1106 -79.8275 38° Northeast 426 490 41,000  Level Jacksonville Center
11:08AM 33.2003 -79.7425 38° Northeast 426 490 41,000  Level Jacksonville Center
11:09AM 33.2919 -79.6522 39° Northeast 420 483 41,000  Level Jacksonville Center
11:10AM 33.3836 -79.5669 38° Northeast 420 483 41,000  Level Jacksonville Center
11:11AM 33.4731 -79.4764 40° Northeast 414 476 41,000  Level Jacksonville Center
11:12AM 33.5644 -79.3856 40° Northeast 414 476 41,000  Level Jacksonville Center
11:13AM 33.6536 -79.2972 39° Northeast 414 476 41,000  Level Jacksonville Center
11:15AM 33.8100 -79.1411 40° Northeast 422 486 41,000  Level Washington Center
11:16AM 33.9011 -79.0517 39° Northeast 422 486 41,000  Level Washington Center
11:17AM 33.9928 -78.9625 39° Northeast 422 486 41,000  Level Washington Center
11:18AM 34.0833 -78.8722 40° Northeast 422 486 41,000  Level Washington Center
11:19AM 34.1747 -78.7803 40° Northeast 422 486 41,000  Level Washington Center
11:20AM 34.2850 -78.6708 39° Northeast 423 487 41,000  Level Washington Center
11:21AM 34.3764 -78.5783 40° Northeast 424 488 41,000  Level Washington Center
11:22AM 34.4694 -78.4844 40° Northeast 430 495 41,000 120 Level Washington Center
11:23AM 34.5608 -78.3919 40° Northeast 429 494 41,300 480 Climbing Washington Center
11:24AM 34.6500 -78.3014 40° Northeast 421 484 42,000 720 Climbing Washington Center
11:25AM 34.7356 -78.2136 40° Northeast 407 468 42,800 480 Climbing Washington Center
11:26AM 34.8267 -78.1189 40° Northeast 400 460 43,000 60 Climbing Washington Center
11:27AM 34.9117 -78.0319 40° Northeast 400 460 43,000  Level Washington Center
11:28AM 35.0133 -77.9275 40° Northeast 400 460 43,000  Level Washington Center
11:29AM 35.0994 -77.8394 40° Northeast 401 461 43,000  Level Washington Center
11:30AM 35.1850 -77.7503 40° Northeast 403 464 43,000  Level Washington Center
11:31AM 35.2719 -77.6608 40° Northeast 409 471 43,000  Level Washington Center
11:32AM 35.3592 -77.5714 40° Northeast 410 472 43,000  Level Washington Center
11:33AM 35.4694 -77.4728 36° Northeast 411 473 43,000  Level Washington Center
11:35AM 35.5619 -77.3906 36° Northeast 411 473 43,000  Level Washington Center
11:36AM 35.6542 -77.3089 36° Northeast 411 473 43,000  Level Washington Center
11:37AM 35.7481 -77.2256 36° Northeast 413 475 43,000  Level Washington Center
11:38AM 35.8425 -77.1433 35° Northeast 414 476 43,000  Level Washington Center
11:39AM 35.9397 -77.0572 36° Northeast 414 476 43,000  Level Washington Center
11:40AM 36.0361 -76.9728 35° Northeast 423 487 43,000  Level Washington Center
11:41AM 36.1486 -76.8706 36° Northeast 420 483 43,000  Level Washington Center
11:42AM 36.2428 -76.7875 35° Northeast 419 482 43,000  Level Washington Center
11:43AM 36.3367 -76.7031 36° Northeast 419 482 43,000  Level Washington Center
11:44AM 36.4300 -76.6194 36° Northeast 418 481 43,000  Level Washington Center
11:45AM 36.5225 -76.5356 36° Northeast 414 476 43,000  Level Washington Center
11:46AM 36.6153 -76.4525 36° Northeast 412 474 43,000  Level Washington Center
11:47AM 36.7258 -76.3500 37° Northeast 411 473 43,000  Level Washington Center
11:48AM 36.8164 -76.2672 36° Northeast 411 473 43,000  Level Washington Center
11:49AM 36.9100 -76.1889 34° Northeast 410 472 43,000  Level Washington Center
11:50AM 37.0236 -76.1361 20° North 426 490 43,000  Level Washington Center
11:51AM 37.1228 -76.0789 25° Northeast 404 465 43,000  Level Washington Center
11:52AM 37.2239 -76.0233 24° Northeast 395 455 43,000  Level Washington Center
11:53AM 37.3261 -75.9692 23° Northeast 399 459 43,000  Level Washington Center
11:54AM 37.4494 -75.9025 23° Northeast 399 459 43,000  Level Washington Center
11:55AM 37.5528 -75.8467 23° Northeast 401 461 43,000  Level Washington Center
11:56AM 37.6500 -75.7703 32° Northeast 405 466 43,000  Level Washington Center
11:57AM 37.7467 -75.6975 31° Northeast 405 466 43,000  Level Washington Center
11:58AM 37.8447 -75.6253 30° Northeast 406 467 43,000  Level Washington Center
11:59AM 37.9419 -75.5525 31° Northeast 406 467 43,000  Level Washington Center
12:00PM 38.0567 -75.4636 31° Northeast 406 467 43,000  Level Washington Center
12:01PM 38.1556 -75.3989 27° Northeast 404 465 43,000  Level Washington Center
12:03PM 38.2553 -75.3364 26° Northeast 403 464 43,000 -480 Level Washington Center
12:04PM 38.3678 -75.2686 25° Northeast 403 464 42,100 -960 Descending Washington Center
12:05PM 38.4697 -75.2008 27° Northeast 411 473 41,100 -960 Descending Washington Center
12:06PM 38.5728 -75.1381 25° Northeast 411 473 40,200 -960 Descending Washington Center
12:07PM 38.6725 -75.0703 28° Northeast 410 472 39,100 -600 Descending Washington Center
12:08PM 38.7750 -75.0047 26° Northeast 410 472 39,000 -60 Descending Washington Center
12:09PM 38.8950 -74.9300 26° Northeast 403 464 39,000 -480 Level Washington Center
12:10PM 38.9975 -74.8639 27° Northeast 407 468 38,000 -1,680 Descending Washington Center
12:11PM 39.1022 -74.7956 27° Northeast 423 487 35,700 -2,340 Descending Washington Center
12:12PM 39.2011 -74.6936 39° Northeast 453 521 33,200 -2,460 Descending Washington Center
12:13PM 39.2981 -74.5906 39° Northeast 457 526 30,700 -2,880 Descending Washington Center
12:14PM 39.4167 -74.4689 38° Northeast 458 527 27,300 -2,940 Descending Washington Center
12:15PM 39.5142 -74.3650 39° Northeast 459 528 24,600 -1,620 Descending Washington Center
12:16PM 39.6100 -74.2628 39° Northeast 456 525 24,000 -300 Descending Washington Center
12:17PM 39.7236 -74.1447 39° Northeast 454 522 24,000 -180 Level New York Center
12:18PM 39.8181 -74.0464 39° Northeast 441 507 23,700 -1,260 Descending New York Center
12:19PM 39.9125 -73.9428 40° Northeast 436 502 21,600 -2,160 Descending New York Center
12:20PM 40.0092 -73.8414 39° Northeast 441 507 19,400 -1,800 Descending New York Center
12:21PM 40.0992 -73.7450 39° Northeast 432 497 18,000 -1,200 Descending New York Center
12:22PM 40.1975 -73.6433 38° Northeast 433 498 17,100 -360 Descending New York Center
12:24PM 40.3844 -73.4428 39° Northeast 419 482 17,000 -60 Descending Washington Center
12:25PM 40.4950 -73.4075 14° North 414 476 17,000 -840 Level Washington Center
12:27PM 40.6392 -73.3603 14° North 369 425 15,200 -900 Descending Boston Center
12:28PM 40.7194 -73.3300 16° North 301 346 15,000 -300 Descending Boston Center
12:29PM 40.7969 -73.2981 17° North 290 334 14,700 -840 Descending Boston Center
12:30PM 40.8525 -73.2044 52° Northeast 328 377 13,300 -1,440 Descending Boston Center
12:31PM 40.8950 -73.0958 63° Northeast 333 383 11,800 -1,440 Descending Boston Center
12:32PM 40.9531 -72.9786 57° Northeast 320 368 10,400 -1,260 Descending Boston Center
12:33PM 41.0219 -72.9961 349° North 292 336 9,200 -1,320 Descending Boston Center
12:34PM 41.0603 -73.0808 301° West 274 315 7,700 -1,500 Descending Boston Center
12:35PM 41.0942 -73.1686 297° West 274 315 6,100 -1,680 Descending Boston Center
12:36PM 41.1275 -73.2547 297° West 268 308 4,300 -1,500 Descending Boston Center
12:37PM 41.1692 -73.3564 299° West 263 303 3,000 -660 Descending Boston Center
12:38PM 41.1939 -73.4375 292° West 242 278 3,000  Level Boston Center
12:39PM 41.1533 -73.4933 226° Southwest 229 264 3,000 -180 Level Boston Center
12:40PM 41.1572 -73.5606 274° West 222 255 2,700 -300 Descending Boston Center
12:41PM 41.1850 -73.6233 300° West 208 239 2,400 -360 Descending Boston Center
12:42PM 41.2167 -73.6833 305° West 187 215 2,100 -240 Descending New York TRACON
12:43PM 41.2000 -73.7500 252° West 192 221 2,000 -60 Descending New York TRACON
12:44PM 41.1833 -73.8000 246° West 193 222 2,000  Level New York TRACON
12:45PM 41.1333 -73.7667 153° Southeast 161 185 2,000 -420 Level New York TRACON
12:46PM 41.1000 -73.7333 143° Southeast 144 166 1,200 -840 Descending New York TRACON